createdAt,value
2017-10-12T00:01:41.425Z,90.60
2017-10-12T00:04:16.915Z,90.10
2017-10-12T00:06:50.359Z,89.60
2017-10-12T00:15:33.343Z,90.00
2017-10-12T00:18:06.951Z,88.50
2017-10-12T00:20:46.893Z,88.40
2017-10-12T00:26:11.754Z,88.00
2017-10-12T00:31:36.724Z,89.50
2017-10-12T00:34:10.505Z,89.50
2017-10-12T00:36:54.923Z,89.70
2017-10-12T00:39:37.157Z,89.30
2017-10-12T00:42:23.283Z,89.00
2017-10-12T00:45:04.025Z,88.60
2017-10-12T00:47:37.820Z,90.00
2017-10-12T00:50:11.843Z,88.90
2017-10-12T00:52:42.797Z,88.80
2017-10-12T00:55:23.020Z,88.70
2017-10-12T01:03:02.348Z,87.80
2017-10-12T01:08:13.699Z,88.10
2017-10-12T01:10:44.911Z,89.50
2017-10-12T01:13:18.389Z,89.70
2017-10-12T01:58:14.584Z,86.80
2017-10-12T02:00:51.034Z,86.30
2017-10-12T02:03:30.163Z,84.40
2017-10-12T02:06:07.821Z,83.00
2017-10-12T02:08:50.228Z,84.30
2017-10-12T02:11:31.806Z,78.90
2017-10-12T02:14:08.196Z,79.60
2017-10-12T02:16:43.881Z,76.20
2017-10-12T02:19:16.193Z,75.50
2017-10-12T02:25:04.978Z,73.10
2017-10-12T02:27:35.710Z,72.90
2017-10-12T02:30:14.442Z,73.20
2017-10-12T02:33:03.984Z,73.20
2017-10-12T02:38:40.094Z,66.20
2017-10-12T02:41:35.766Z,66.00
2017-10-12T02:44:12.741Z,63.70
2017-10-12T02:47:03.749Z,63.70
2017-10-12T02:49:37.180Z,63.10
2017-10-12T02:52:11.527Z,64.50
2017-10-12T02:57:19.347Z,62.90
2017-10-12T02:59:51.705Z,63.20
2017-10-12T03:02:40.066Z,62.20
2017-10-12T03:05:14.944Z,63.20
2017-10-12T03:07:47.005Z,63.10
2017-10-12T03:10:43.060Z,65.00
2017-10-12T03:13:19.562Z,63.00
2017-10-12T03:16:01.183Z,65.10
2017-10-12T03:18:37.195Z,65.70
2017-10-12T03:21:13.679Z,65.80
2017-10-12T03:23:44.983Z,66.50
2017-10-12T03:26:27.951Z,67.40
2017-10-12T03:29:06.594Z,67.50
2017-10-12T03:34:37.287Z,67.50
2017-10-12T03:37:11.075Z,67.50
2017-10-12T03:39:40.997Z,67.90
2017-10-12T03:42:17.553Z,67.00
2017-10-12T03:44:49.497Z,67.10
2017-10-12T03:47:21.625Z,66.80
2017-10-12T03:49:52.216Z,66.70
2017-10-12T03:55:10.748Z,66.30
2017-10-12T03:57:39.841Z,67.80
2017-10-12T04:00:15.456Z,67.80
2017-10-12T04:02:45.231Z,66.90
2017-10-12T04:05:15.848Z,66.60
2017-10-12T04:07:46.851Z,66.80
2017-10-12T04:10:18.188Z,66.80
2017-10-12T04:12:48.631Z,66.70
2017-10-12T04:15:35.860Z,65.70
2017-10-12T04:18:10.823Z,65.70
2017-10-12T04:20:44.445Z,65.80
2017-10-12T04:23:20.008Z,66.90
2017-10-12T04:25:48.738Z,68.00
2017-10-12T04:28:27.864Z,67.00
2017-10-12T04:31:06.314Z,67.30
2017-10-12T04:33:44.141Z,67.90
2017-10-12T04:36:26.923Z,67.90
2017-10-12T04:39:18.403Z,68.20
2017-10-12T04:41:51.183Z,70.10
2017-10-12T04:47:06.810Z,72.40
2017-10-12T04:49:36.411Z,70.00
2017-10-12T04:52:04.430Z,68.30
2017-10-12T04:57:38.079Z,67.60
2017-10-12T05:03:08.877Z,68.00
2017-10-12T05:05:43.260Z,66.60
2017-10-12T05:13:38.609Z,66.90
2017-10-12T05:16:09.369Z,66.40
2017-10-12T05:18:42.491Z,66.70
2017-10-12T05:23:55.432Z,66.70
2017-10-12T05:26:30.858Z,66.80
2017-10-12T05:31:41.095Z,67.90
2017-10-12T05:34:12.420Z,67.80
2017-10-12T05:36:41.407Z,68.40
2017-10-12T05:39:10.195Z,69.30
2017-10-12T05:41:39.390Z,69.40
2017-10-12T05:44:09.395Z,69.60
2017-10-12T05:46:47.021Z,70.90
2017-10-12T05:49:30.189Z,70.30
2017-10-12T05:52:08.319Z,71.00
2017-10-12T05:54:41.707Z,72.40
2017-10-12T05:57:09.534Z,72.30
2017-10-12T05:59:40.958Z,72.70
2017-10-12T06:02:15.367Z,72.90
2017-10-12T06:04:56.277Z,73.30
2017-10-12T06:07:27.261Z,73.20
2017-10-12T06:10:03.893Z,73.30
2017-10-12T06:12:34.727Z,73.30
2017-10-12T06:15:09.977Z,73.60
2017-10-12T06:17:42.191Z,73.60
2017-10-12T06:20:13.965Z,73.60
2017-10-12T06:22:44.523Z,73.80
2017-10-12T06:25:16.793Z,73.80
2017-10-12T06:27:49.800Z,74.10
2017-10-12T06:30:19.172Z,74.20
2017-10-12T06:32:51.185Z,74.50
2017-10-12T06:35:24.872Z,74.80
2017-10-12T06:40:35.264Z,75.00
2017-10-12T06:43:09.357Z,74.80
2017-10-12T06:45:40.937Z,74.80
2017-10-12T06:48:09.533Z,74.90
2017-10-12T06:50:47.373Z,75.20
2017-10-12T06:53:17.743Z,75.70
2017-10-12T06:55:52.282Z,75.30
2017-10-12T06:58:22.251Z,75.50
2017-10-12T07:00:56.097Z,75.50
2017-10-12T07:03:27.137Z,75.40
2017-10-12T07:05:58.811Z,75.40
2017-10-12T07:08:27.534Z,75.40
2017-10-12T07:10:58.511Z,75.30
2017-10-12T07:13:29.866Z,75.20
2017-10-12T07:16:01.313Z,76.80
2017-10-12T07:18:35.081Z,76.60
2017-10-12T07:21:12.864Z,76.40
2017-10-12T07:23:46.532Z,76.40
2017-10-12T07:26:22.552Z,76.30
2017-10-12T07:28:57.112Z,76.40
2017-10-12T07:31:28.315Z,76.80
2017-10-12T07:34:04.241Z,76.30
2017-10-12T07:36:33.454Z,76.30
2017-10-12T07:39:06.111Z,76.70
2017-10-12T07:44:17.550Z,76.10
2017-10-12T07:46:52.823Z,75.80
2017-10-12T07:49:22.377Z,75.90
2017-10-12T07:51:51.747Z,75.70
2017-10-12T07:54:29.851Z,75.00
2017-10-12T07:56:59.668Z,74.40
2017-10-12T07:59:32.036Z,73.70
2017-10-12T08:02:01.989Z,72.50
2017-10-12T08:04:37.224Z,72.50
2017-10-12T08:07:08.716Z,71.80
2017-10-12T08:09:38.446Z,71.80
2017-10-12T08:12:08.818Z,71.40
2017-10-12T08:14:44.600Z,71.00
2017-10-12T08:17:27.922Z,70.80
2017-10-12T08:20:13.619Z,70.50
2017-10-12T08:22:44.639Z,70.60
2017-10-12T08:25:23.592Z,70.60
2017-10-12T08:28:04.157Z,70.30
2017-10-12T08:30:36.497Z,70.20
2017-10-12T08:33:07.850Z,69.50
2017-10-12T08:35:36.567Z,70.80
2017-10-12T08:40:46.959Z,69.80
2017-10-12T08:43:16.703Z,68.80
2017-10-12T08:45:47.616Z,68.80
2017-10-12T08:48:16.162Z,68.20
2017-10-12T08:50:50.119Z,67.50
2017-10-12T08:53:25.080Z,67.20
2017-10-12T08:55:55.650Z,66.80
2017-10-12T08:58:35.220Z,66.80
2017-10-12T09:01:06.858Z,66.80
2017-10-12T09:03:37.189Z,66.40
2017-10-12T09:06:08.777Z,66.60
2017-10-12T09:08:40.970Z,67.10
2017-10-12T09:14:10.475Z,68.90
2017-10-12T09:16:39.225Z,69.00
2017-10-12T09:19:10.073Z,69.00
2017-10-12T09:21:40.557Z,69.00
2017-10-12T09:24:15.896Z,69.70
2017-10-12T09:26:43.699Z,69.50
2017-10-12T09:29:14.931Z,69.60
2017-10-12T09:31:51.376Z,69.90
2017-10-12T09:34:25.715Z,70.20
2017-10-12T09:36:59.735Z,69.50
2017-10-12T09:39:39.356Z,69.50
2017-10-12T09:42:09.650Z,69.70
2017-10-12T09:44:40.952Z,70.50
2017-10-12T09:47:11.589Z,68.90
2017-10-12T09:49:43.785Z,68.20
2017-10-12T09:52:17.072Z,68.20
2017-10-12T09:54:47.324Z,67.60
2017-10-12T09:57:19.077Z,67.70
2017-10-12T09:59:52.381Z,66.70
2017-10-12T10:02:25.036Z,66.70
2017-10-12T10:04:54.564Z,66.20
2017-10-12T10:07:26.980Z,65.20
2017-10-12T10:09:56.604Z,65.10
2017-10-12T10:12:30.210Z,66.30
2017-10-12T10:15:03.743Z,66.20
2017-10-12T10:17:36.755Z,65.70
2017-10-12T10:20:08.163Z,65.60
2017-10-12T10:22:36.415Z,65.50
2017-10-12T10:25:06.996Z,65.50
2017-10-12T10:30:33.929Z,66.50
2017-10-12T10:33:07.681Z,66.40
2017-10-12T10:35:36.298Z,66.40
2017-10-12T10:38:09.623Z,66.80
2017-10-12T10:40:43.116Z,66.10
2017-10-12T10:43:16.503Z,66.20
2017-10-12T10:45:46.412Z,66.10
2017-10-12T10:48:18.482Z,65.60
2017-10-12T10:50:49.142Z,65.10
2017-10-12T10:53:31.681Z,65.20
2017-10-12T10:56:03.634Z,65.40
2017-10-12T11:01:23.312Z,64.40
2017-10-12T11:03:51.342Z,65.10
2017-10-12T11:06:29.042Z,65.80
2017-10-12T11:08:58.417Z,65.80
2017-10-12T11:11:30.079Z,65.50
2017-10-12T11:14:00.078Z,64.30
2017-10-12T11:16:30.978Z,64.10
2017-10-12T11:19:02.847Z,64.10
2017-10-12T11:21:34.861Z,64.40
2017-10-12T11:24:08.029Z,63.70
2017-10-12T11:26:39.656Z,63.10
2017-10-12T11:29:07.864Z,62.80
2017-10-12T11:31:40.972Z,63.40
2017-10-12T11:34:12.041Z,63.30
2017-10-12T11:36:44.031Z,62.80
2017-10-12T11:39:13.181Z,62.70
2017-10-12T11:41:43.758Z,63.80
2017-10-12T11:44:13.648Z,63.60
2017-10-12T11:46:47.786Z,62.10
2017-10-12T11:49:17.723Z,62.20
2017-10-12T11:51:47.660Z,62.00
2017-10-12T11:54:18.479Z,61.90
2017-10-12T11:56:49.569Z,61.50
2017-10-12T11:59:22.140Z,62.20
2017-10-12T12:01:57.550Z,61.80
2017-10-12T12:04:31.946Z,61.80
2017-10-12T12:07:01.760Z,60.10
2017-10-12T12:09:31.653Z,61.60
2017-10-12T12:12:06.315Z,62.30
2017-10-12T12:14:37.757Z,62.30
2017-10-12T12:17:06.501Z,60.00
2017-10-12T12:19:40.934Z,60.90
2017-10-12T12:22:09.900Z,62.20
2017-10-12T12:27:21.014Z,60.40
2017-10-12T12:29:50.423Z,60.30
2017-10-12T12:32:23.245Z,60.20
2017-10-12T12:34:53.464Z,61.20
2017-10-12T12:37:22.825Z,62.40
2017-10-12T12:39:51.343Z,61.90
2017-10-12T12:42:20.513Z,62.20
2017-10-12T12:44:49.900Z,60.20
2017-10-12T12:47:18.800Z,60.10
2017-10-12T12:49:47.726Z,59.60
2017-10-12T12:52:26.187Z,59.20
2017-10-12T12:54:58.401Z,59.00
2017-10-12T12:57:30.879Z,59.00
2017-10-12T13:00:01.190Z,59.50
2017-10-12T13:02:34.789Z,58.40
2017-10-12T13:05:06.210Z,57.00
2017-10-12T13:07:36.771Z,56.40
2017-10-12T13:10:06.931Z,56.00
2017-10-12T13:12:37.274Z,56.40
2017-10-12T13:15:10.317Z,55.90
2017-10-12T13:17:44.575Z,55.30
2017-10-12T13:20:15.247Z,56.20
2017-10-12T13:22:47.139Z,56.40
2017-10-12T13:25:18.784Z,56.30
2017-10-12T13:27:48.992Z,56.30
2017-10-12T13:30:17.714Z,55.60
2017-10-12T13:32:48.397Z,55.70
2017-10-12T13:35:17.939Z,55.60
2017-10-12T13:37:47.993Z,56.00
2017-10-12T13:40:17.571Z,55.80
2017-10-12T13:42:53.036Z,57.50
2017-10-12T13:45:23.579Z,57.90
2017-10-12T13:47:54.929Z,56.20
2017-10-12T13:50:24.965Z,55.50
2017-10-12T13:53:01.431Z,57.20
2017-10-12T13:55:33.152Z,58.30
2017-10-12T13:58:04.922Z,57.30
2017-10-12T14:00:35.705Z,57.30
2017-10-12T14:03:09.292Z,57.50
2017-10-12T14:05:40.295Z,55.80
2017-10-12T14:08:12.965Z,57.60
2017-10-12T14:10:43.833Z,57.60
2017-10-12T14:13:14.881Z,57.50
2017-10-12T14:15:45.005Z,56.20
2017-10-12T14:18:15.529Z,59.30
2017-10-12T14:20:47.483Z,62.50
2017-10-12T14:23:18.812Z,62.40
2017-10-12T14:25:48.742Z,60.80
2017-10-12T14:28:19.853Z,64.90
2017-10-12T14:30:52.168Z,64.90
2017-10-12T14:33:20.790Z,65.50
2017-10-12T14:35:51.749Z,68.60
2017-10-12T14:38:22.241Z,67.60
2017-10-12T14:40:51.406Z,67.50
2017-10-12T14:43:23.016Z,68.20
2017-10-12T16:08:35.666Z,69.60
2017-10-12T16:11:11.676Z,83.40
2017-10-12T16:16:31.771Z,80.80
2017-10-12T16:19:19.448Z,80.90
2017-10-12T16:24:47.242Z,81.70
2017-10-12T16:27:33.987Z,81.50
2017-10-12T16:33:12.407Z,82.40
2017-10-12T16:38:01.354Z,81.90
2017-10-12T16:40:33.900Z,81.30
2017-10-12T16:43:14.771Z,81.40
2017-10-12T16:52:07.219Z,81.80
2017-10-12T17:00:08.976Z,83.70
2017-10-12T17:02:36.531Z,83.80
2017-10-12T17:05:04.924Z,83.80
2017-10-12T17:07:34.088Z,83.90
2017-10-12T17:10:03.632Z,83.90
2017-10-12T17:12:35.458Z,84.40
2017-10-12T17:15:05.025Z,84.70
2017-10-12T17:17:33.669Z,85.10
2017-10-12T17:20:01.564Z,84.00
2017-10-12T17:22:30.171Z,84.00
2017-10-12T17:25:00.370Z,83.90
2017-10-12T17:27:30.749Z,84.20
2017-10-12T17:30:00.061Z,84.20
2017-10-12T17:32:30.824Z,84.40
2017-10-12T17:35:00.749Z,83.50
2017-10-12T17:37:30.543Z,83.40
2017-10-12T17:39:59.639Z,85.20
2017-10-12T17:42:29.797Z,85.40
2017-10-12T17:44:58.166Z,85.50
2017-10-12T17:47:27.153Z,85.20
2017-10-12T17:49:55.974Z,85.50
2017-10-12T17:52:26.346Z,85.40
2017-10-12T17:54:58.048Z,84.70
2017-10-12T17:57:28.055Z,85.20
2017-10-12T17:59:57.526Z,85.70
2017-10-12T18:02:27.212Z,85.30
2017-10-12T18:04:58.913Z,85.30
2017-10-12T18:07:28.431Z,85.30
2017-10-12T18:09:58.119Z,86.20
2017-10-12T18:12:26.291Z,85.80
2017-10-12T18:14:55.132Z,85.90
2017-10-12T18:17:26.924Z,87.10
2017-10-12T18:19:58.861Z,86.30
2017-10-12T18:22:27.328Z,86.20
2017-10-12T18:24:56.153Z,86.30
2017-10-12T18:27:25.023Z,86.20
2017-10-12T18:29:56.669Z,87.00
2017-10-12T18:32:31.616Z,86.90
2017-10-12T18:35:03.864Z,86.90
2017-10-12T18:37:39.251Z,87.20
2017-10-12T18:43:03.524Z,87.60
2017-10-12T18:45:33.027Z,87.70
2017-10-12T18:48:05.061Z,88.40
2017-10-12T18:50:35.191Z,87.80
2017-10-12T18:53:06.488Z,87.60
2017-10-12T18:55:35.776Z,88.00
2017-10-12T18:58:05.325Z,88.70
2017-10-12T19:00:33.890Z,88.50
2017-10-12T19:03:03.239Z,89.10
2017-10-12T19:05:34.287Z,89.50
2017-10-12T19:08:02.993Z,89.50
2017-10-12T19:10:35.204Z,89.70
2017-10-12T19:13:04.510Z,89.60
2017-10-12T19:15:37.271Z,89.40
2017-10-12T19:18:04.987Z,89.50
2017-10-12T19:20:33.456Z,89.30
2017-10-12T19:23:06.402Z,89.20
2017-10-12T19:25:35.227Z,89.20
2017-10-12T19:33:05.086Z,90.00
2017-10-12T19:35:35.007Z,90.00
2017-10-12T19:38:04.993Z,90.10
2017-10-12T19:40:34.625Z,90.20
2017-10-12T19:43:03.686Z,90.20
2017-10-12T19:45:36.710Z,90.20
2017-10-12T19:48:06.671Z,90.20
2017-10-12T19:50:35.436Z,90.30
2017-10-12T19:53:03.571Z,90.30
2017-10-12T19:55:33.055Z,90.50
2017-10-12T19:58:04.134Z,90.40
2017-10-12T20:00:31.975Z,90.50
2017-10-12T20:03:03.559Z,90.50
2017-10-12T20:05:50.975Z,90.70
2017-10-12T20:08:25.408Z,90.60
2017-10-12T20:10:55.604Z,90.60
2017-10-12T20:13:27.939Z,90.60
2017-10-12T20:15:56.236Z,90.80
2017-10-12T20:18:28.587Z,90.80
2017-10-12T20:20:58.663Z,90.80
2017-10-12T20:23:27.910Z,90.80
2017-10-12T20:25:59.966Z,90.90
2017-10-12T20:28:29.569Z,90.80
2017-10-12T20:31:01.676Z,90.90
2017-10-12T20:33:36.509Z,90.80
2017-10-12T20:36:06.286Z,90.90
2017-10-12T20:38:37.807Z,90.90
2017-10-12T20:41:07.353Z,90.90
2017-10-12T20:43:40.762Z,91.10
2017-10-12T20:49:01.445Z,91.30
2017-10-12T20:51:30.312Z,91.30
2017-10-12T20:54:00.628Z,91.40
2017-10-12T20:56:29.326Z,91.50
2017-10-12T20:58:59.297Z,91.80
2017-10-12T21:01:28.397Z,91.80
2017-10-12T21:04:00.309Z,91.90
2017-10-12T21:06:32.682Z,91.90
2017-10-12T21:09:02.670Z,91.90
2017-10-12T21:11:35.980Z,92.00
2017-10-12T21:14:04.191Z,92.00
2017-10-12T21:16:32.738Z,92.10
2017-10-12T21:19:02.283Z,91.90
2017-10-12T21:21:31.149Z,91.90
2017-10-12T21:24:00.972Z,92.00
2017-10-12T21:26:29.551Z,92.00
2017-10-12T21:28:59.648Z,92.30
2017-10-12T21:31:30.216Z,91.90
2017-10-12T21:34:10.974Z,92.20
2017-10-12T21:36:39.479Z,92.10
2017-10-12T21:39:08.711Z,92.20
2017-10-12T21:41:37.536Z,92.20
2017-10-12T21:44:05.853Z,92.50
2017-10-12T21:46:34.764Z,92.50
2017-10-12T21:49:04.731Z,92.60
2017-10-12T21:51:34.185Z,92.60
2017-10-12T21:54:02.768Z,92.60
2017-10-12T21:56:33.821Z,92.90
2017-10-12T21:59:02.224Z,93.10
2017-10-12T22:01:29.854Z,92.70
2017-10-12T22:04:04.043Z,92.80
2017-10-12T22:06:33.552Z,93.00
2017-10-12T22:09:14.571Z,92.90
2017-10-12T22:11:42.154Z,93.00
2017-10-12T22:14:10.599Z,93.00
2017-10-12T22:16:38.934Z,93.20
2017-10-12T22:19:11.908Z,93.00
2017-10-12T22:21:39.491Z,93.00
2017-10-12T22:24:07.962Z,93.00
2017-10-12T22:26:35.552Z,93.10
2017-10-12T22:29:09.976Z,93.10
2017-10-12T22:31:39.039Z,93.10
2017-10-12T22:34:06.622Z,93.00
2017-10-12T22:36:40.540Z,93.00
2017-10-12T22:39:11.846Z,93.00
2017-10-12T22:41:46.009Z,92.80
2017-10-12T22:44:33.262Z,92.80
2017-10-12T22:47:05.909Z,92.90
2017-10-12T22:49:36.385Z,93.00
2017-10-12T22:52:05.821Z,93.00
2017-10-12T22:54:36.641Z,92.70
2017-10-12T23:00:05.365Z,93.20
2017-10-12T23:02:37.554Z,93.20
2017-10-12T23:05:08.230Z,93.40
2017-10-12T23:07:41.900Z,93.80
2017-10-12T23:10:12.865Z,93.40
2017-10-12T23:13:03.452Z,93.50
2017-10-12T23:24:34.957Z,93.30
2017-10-12T23:27:03.671Z,93.60
2017-10-12T23:29:37.868Z,93.70
2017-10-12T23:32:09.471Z,93.70
2017-10-12T23:34:40.276Z,93.70
2017-10-12T23:37:31.797Z,93.90
2017-10-12T23:43:08.576Z,93.80
2017-10-12T23:45:38.256Z,93.80
2017-10-12T23:48:15.612Z,93.60
2017-10-12T23:51:04.174Z,93.70
2017-10-12T23:56:40.095Z,94.00
